Mallabula, New South Wales

1:06 PM AEDT on March 31, 2015 (GMT +1100)
Port Stephens | | Change Station
CLOSE
Current Station
Personal Weather Station
Location: Lemon Tree Pass., NSW
Elevation: 150 ft
Nearby Weather Stations

Elev 150 ft 32.73 °S, 152.03 °E | Updated 11 seconds ago

Light Rain Showers
Light Showers Rain
65.7 °F
Feels Like 65.7 °F
N
2.0
Wind Variable Wind from ESE
Gusts 4.0 mph

Today
High -- | Low -- °F
--% Chance of Precip.
Yesterday
High -- | Low -- °F
Precip. -- in
7:02 AM 6:49 PM
Waxing Gibbous, 83% visible
Pressure 30.27 in
Visibility 3.7 miles
Clouds Mostly Cloudy 2000 ft
Overcast 4800 ft
Dew Point 64 °F
Humidity 93%
Rainfall 0.20 in
Snow Depth Not available.
UV 3 out of 12
Pollen Not available.
Air Quality Not available.
Flu Activity Not available.
SPECI YWLM 310150Z 03011KT 6000 -SHRA BKN020 OVC048 19/17 Q1025 INTER 0150/0450 4000 SHRA BKN010

More Conditions Fewer Conditions

Pressure 30.27 in
Visibility 3.7 miles
Clouds Mostly Cloudy 2000 ft
Overcast 4800 ft
Dew Point 64 °F
Humidity 93%
Rainfall 0.20 in
Snow Depth Not available.
UV 3 out of 12
Pollen Not available.
Air Quality Not available.
Flu Activity Not available.
SPECI YWLM 310150Z 03011KT 6000 -SHRA BKN020 OVC048 19/17 Q1025 INTER 0150/0450 4000 SHRA BKN010

More Conditions Fewer Conditions

10-Day Weather Forecast

Almanac

Astronomy

Mar. 31, 2015 Rise Set
Actual Time
Civil Twilight
Nautical Twilight
Astronomical Twilight
Moon
Length of Visible Light
Length of Day
Tomorrow will be .
, % of the Moon is Illuminated

Today's Extremes

Country Highs Country Lows

Community

WunderPhotos

Upload Photos

1,809,664 photos uploaded!

WunderBlogs® & News

Nearby

Air Quality

  Air Quality AQ Index Pollutant
Not available.

Snow Depth

Station Depth Elevation

Earthquake Activity

City Distance Mag. Time & Date
Minimum magnitude displayed is 2.5.

Coastal Water Temperatures

Place Temperature

Stations

Nearby Weather Stations

Station Location Temp. Windchill Dew Point Humidity Wind Precip. Elev Updated Type